createdAt,value
2023-05-22T00:00:56.913Z,18.08
2023-05-22T00:03:23.525Z,18.06
2023-05-22T00:05:50.658Z,18.05
2023-05-22T00:08:17.199Z,18.03
2023-05-22T00:10:43.811Z,18.00
2023-05-22T00:13:10.340Z,18.00
2023-05-22T00:15:36.903Z,17.94
2023-05-22T00:18:03.511Z,17.90
2023-05-22T00:20:30.077Z,17.92
2023-05-22T00:22:56.715Z,17.91
2023-05-22T00:25:23.287Z,17.90
2023-05-22T00:27:49.893Z,17.88
2023-05-22T00:30:16.594Z,17.83
2023-05-22T00:32:43.205Z,17.78
2023-05-22T00:35:10.117Z,17.76
2023-05-22T00:37:36.689Z,17.73
2023-05-22T00:40:03.543Z,17.68
2023-05-22T00:42:30.121Z,17.68
2023-05-22T00:44:56.737Z,17.62
2023-05-22T00:47:23.488Z,17.59
2023-05-22T00:49:50.078Z,17.59
2023-05-22T00:52:16.701Z,17.61
2023-05-22T00:54:43.273Z,17.57
2023-05-22T00:57:09.896Z,17.56
2023-05-22T00:59:36.479Z,17.51
2023-05-22T01:02:03.217Z,17.46
2023-05-22T01:04:29.825Z,17.43
2023-05-22T01:06:56.443Z,17.43
2023-05-22T01:09:23.052Z,17.41
2023-05-22T01:12:00.700Z,17.42
2023-05-22T01:14:47.419Z,17.41
2023-05-22T01:17:19.225Z,17.39
2023-05-22T01:20:23.517Z,17.35
2023-05-22T01:23:02.059Z,17.31
2023-05-22T01:25:52.845Z,17.31
2023-05-22T01:28:34.625Z,17.28
2023-05-22T01:31:08.816Z,17.19
2023-05-22T01:33:40.800Z,17.16
2023-05-22T01:36:07.654Z,17.13
2023-05-22T01:38:34.249Z,17.11
2023-05-22T01:41:01.099Z,17.08
2023-05-22T01:43:27.680Z,17.02
2023-05-22T01:45:54.349Z,17.00
2023-05-22T01:48:21.006Z,17.00
2023-05-22T01:50:48.147Z,16.94
2023-05-22T01:53:30.461Z,16.96
2023-05-22T01:55:56.920Z,16.95
2023-05-22T01:58:46.429Z,16.93
2023-05-22T02:01:13.203Z,16.91
2023-05-22T02:03:40.023Z,16.91
2023-05-22T02:06:07.524Z,16.85
2023-05-22T02:08:35.690Z,16.89
2023-05-22T02:11:02.223Z,16.88
2023-05-22T02:13:28.838Z,16.88
2023-05-22T02:15:56.055Z,16.85
2023-05-22T02:18:28.991Z,16.82
2023-05-22T02:20:57.153Z,16.79
2023-05-22T02:23:23.735Z,16.75
2023-05-22T02:25:50.293Z,16.75
2023-05-22T02:28:16.857Z,16.77
2023-05-22T02:30:43.490Z,16.76
2023-05-22T02:33:10.105Z,16.75
2023-05-22T02:35:36.740Z,16.75
2023-05-22T02:38:03.277Z,16.73
2023-05-22T02:40:29.848Z,16.70
2023-05-22T02:42:56.429Z,16.74
2023-05-22T02:45:23.088Z,16.71
2023-05-22T02:47:49.775Z,16.73
2023-05-22T02:50:16.390Z,16.73
2023-05-22T02:52:42.993Z,16.73
2023-05-22T02:55:09.705Z,16.64
2023-05-22T02:57:36.381Z,16.62
2023-05-22T03:00:04.091Z,16.60
2023-05-22T03:02:30.760Z,16.64
2023-05-22T03:04:57.387Z,16.64
2023-05-22T03:07:23.931Z,16.64
2023-05-22T03:09:50.546Z,16.64
2023-05-22T03:12:17.106Z,16.62
2023-05-22T03:14:44.222Z,16.61
2023-05-22T03:17:10.802Z,16.63
2023-05-22T03:19:37.376Z,16.61
2023-05-22T03:22:03.982Z,16.65
2023-05-22T03:24:30.574Z,16.62
2023-05-22T03:26:57.192Z,16.68
2023-05-22T03:29:23.749Z,16.66
2023-05-22T03:31:50.291Z,16.64
2023-05-22T03:34:16.905Z,16.64
2023-05-22T03:36:43.475Z,16.62
2023-05-22T03:39:10.126Z,16.63
2023-05-22T03:41:36.722Z,16.65
2023-05-22T03:44:03.400Z,16.65
2023-05-22T03:46:30.041Z,16.66
2023-05-22T03:48:56.716Z,16.70
2023-05-22T03:51:23.254Z,16.71
2023-05-22T03:53:49.863Z,16.72
2023-05-22T03:56:16.610Z,16.73
2023-05-22T03:58:43.190Z,16.70
2023-05-22T04:01:09.785Z,16.67
2023-05-22T04:03:37.690Z,16.64
2023-05-22T04:06:04.801Z,16.67
2023-05-22T04:08:31.437Z,16.69
2023-05-22T04:10:58.050Z,16.68
2023-05-22T04:13:24.591Z,16.71
2023-05-22T04:15:51.173Z,16.72
2023-05-22T04:18:17.776Z,16.79
2023-05-22T04:20:44.380Z,16.89
2023-05-22T04:23:10.938Z,16.97
2023-05-22T04:25:37.565Z,17.02
2023-05-22T04:28:04.273Z,17.06
2023-05-22T04:30:34.145Z,17.08
2023-05-22T04:33:00.929Z,17.03
2023-05-22T04:35:27.629Z,17.10
2023-05-22T04:37:54.213Z,17.21
2023-05-22T04:40:20.896Z,17.24
2023-05-22T04:42:47.495Z,17.33
2023-05-22T04:45:14.096Z,17.39
2023-05-22T04:47:40.822Z,17.45
2023-05-22T04:50:07.814Z,17.50
2023-05-22T04:52:34.608Z,17.50
2023-05-22T04:55:02.322Z,17.53
2023-05-22T04:57:30.518Z,17.52
2023-05-22T04:59:57.153Z,17.55
2023-05-22T05:02:23.727Z,17.56
2023-05-22T05:04:50.411Z,17.52
2023-05-22T05:07:16.964Z,17.61
2023-05-22T05:09:43.599Z,17.53
2023-05-22T05:12:10.156Z,17.60
2023-05-22T05:14:36.813Z,17.63
2023-05-22T05:17:03.472Z,17.62
2023-05-22T05:19:30.254Z,17.65
2023-05-22T05:21:56.921Z,17.74
2023-05-22T05:24:23.492Z,17.76
2023-05-22T05:26:50.429Z,17.87
2023-05-22T05:29:17.063Z,17.95
2023-05-22T05:31:43.668Z,18.02
2023-05-22T05:34:10.261Z,18.08
2023-05-22T05:36:37.050Z,18.19
2023-05-22T05:39:03.593Z,18.22
2023-05-22T05:41:30.338Z,18.31
2023-05-22T05:43:57.043Z,18.35
2023-05-22T05:46:23.738Z,18.36
2023-05-22T05:48:50.366Z,18.43
2023-05-22T05:51:16.903Z,18.43
2023-05-22T05:53:43.520Z,18.53
2023-05-22T05:56:10.200Z,18.64
2023-05-22T05:58:37.198Z,18.57
2023-05-22T06:01:03.983Z,18.57
2023-05-22T06:03:30.647Z,18.54
2023-05-22T06:05:57.503Z,18.55
2023-05-22T06:08:24.255Z,18.56
2023-05-22T06:10:50.995Z,18.55
2023-05-22T06:13:17.560Z,18.53
2023-05-22T06:15:44.094Z,18.54
2023-05-22T06:18:10.737Z,18.59
2023-05-22T06:20:37.535Z,18.61
2023-05-22T06:23:04.393Z,18.65
2023-05-22T06:25:31.035Z,18.71
2023-05-22T06:27:57.592Z,18.76
2023-05-22T06:30:38.971Z,18.79
2023-05-22T06:33:06.934Z,18.87
2023-05-22T06:35:33.595Z,18.89
2023-05-22T06:38:00.240Z,18.90
2023-05-22T06:40:26.806Z,18.91
2023-05-22T06:42:53.398Z,18.99
2023-05-22T06:45:20.092Z,19.05
2023-05-22T06:47:46.883Z,19.14
2023-05-22T06:50:13.499Z,19.22
2023-05-22T06:52:40.094Z,19.31
2023-05-22T06:55:07.406Z,19.47
2023-05-22T06:57:34.024Z,19.57
2023-05-22T07:00:01.096Z,19.73
2023-05-22T07:02:27.838Z,19.87
2023-05-22T07:04:54.515Z,20.00
2023-05-22T07:07:21.064Z,20.09
2023-05-22T07:09:47.665Z,20.20
2023-05-22T07:12:14.263Z,20.29
2023-05-22T07:14:40.859Z,20.42
2023-05-22T07:17:07.454Z,20.51
2023-05-22T07:19:34.130Z,20.61
2023-05-22T07:22:00.748Z,20.66
2023-05-22T07:24:27.328Z,20.77
2023-05-22T07:26:53.913Z,20.84
2023-05-22T07:29:21.918Z,20.91
2023-05-22T07:31:49.688Z,21.02
2023-05-22T07:34:16.664Z,21.14
2023-05-22T07:36:43.276Z,21.23
2023-05-22T07:39:09.878Z,21.25
2023-05-22T07:41:36.467Z,21.25
2023-05-22T07:44:03.067Z,21.27
2023-05-22T07:46:29.785Z,21.35
2023-05-22T07:48:56.410Z,21.35
2023-05-22T07:51:22.974Z,21.38
2023-05-22T07:53:49.602Z,21.46
2023-05-22T07:56:16.180Z,21.49
2023-05-22T07:58:42.750Z,21.52
2023-05-22T08:01:09.868Z,21.51
2023-05-22T08:03:36.602Z,21.48
2023-05-22T08:06:04.049Z,21.54
2023-05-22T08:08:31.963Z,21.60
2023-05-22T08:13:28.214Z,21.64
2023-05-22T08:16:00.441Z,21.68
2023-05-22T08:18:28.081Z,21.87
2023-05-22T08:20:55.066Z,21.96
2023-05-22T08:23:21.736Z,22.05
2023-05-22T08:25:48.309Z,22.14
2023-05-22T08:28:14.935Z,22.28
2023-05-22T08:30:41.592Z,22.45
2023-05-22T08:33:08.330Z,22.57
2023-05-22T08:35:35.086Z,22.67
2023-05-22T08:38:01.670Z,22.77
2023-05-22T08:40:35.431Z,22.80
2023-05-22T08:43:02.106Z,22.85
2023-05-22T08:45:28.752Z,23.00
2023-05-22T08:47:55.853Z,23.24
2023-05-22T08:50:22.413Z,23.24
2023-05-22T08:52:51.108Z,23.32
2023-05-22T08:55:17.794Z,23.42
2023-05-22T08:57:44.364Z,23.54
2023-05-22T09:00:11.468Z,23.71
2023-05-22T09:02:38.670Z,23.80
2023-05-22T09:05:07.211Z,23.81
2023-05-22T09:07:33.835Z,23.83
2023-05-22T09:10:00.432Z,23.86
2023-05-22T09:12:27.030Z,23.93
2023-05-22T09:14:55.265Z,24.08
2023-05-22T09:17:21.968Z,24.16
2023-05-22T09:19:48.616Z,24.05
2023-05-22T09:22:15.233Z,24.03
2023-05-22T09:24:42.600Z,23.91
2023-05-22T09:27:09.420Z,23.87
2023-05-22T09:29:49.084Z,23.97
2023-05-22T09:32:16.522Z,24.22
2023-05-22T09:34:43.087Z,24.53
2023-05-22T09:37:09.679Z,24.68
2023-05-22T09:39:39.806Z,24.74
2023-05-22T09:42:06.422Z,24.76
2023-05-22T09:44:33.119Z,24.82
2023-05-22T09:46:59.740Z,25.08
2023-05-22T09:49:26.327Z,25.10
2023-05-22T09:51:54.501Z,25.04
2023-05-22T09:54:21.172Z,24.97
2023-05-22T09:56:50.629Z,24.85
2023-05-22T09:59:22.832Z,24.91
2023-05-22T10:01:49.416Z,25.12
2023-05-22T10:04:15.989Z,25.27
2023-05-22T10:06:42.781Z,25.51
2023-05-22T10:09:09.736Z,25.61
2023-05-22T10:11:36.362Z,25.67
2023-05-22T10:14:02.997Z,25.68
2023-05-22T10:16:29.809Z,25.68
2023-05-22T10:18:56.437Z,25.80
2023-05-22T10:21:23.016Z,25.90
2023-05-22T10:23:50.017Z,25.93
2023-05-22T10:26:16.883Z,26.10
2023-05-22T10:28:47.070Z,26.32
2023-05-22T10:31:37.559Z,26.50
2023-05-22T10:34:07.540Z,26.33
2023-05-22T10:37:00.384Z,26.13
2023-05-22T10:40:01.487Z,25.89
2023-05-22T10:42:31.759Z,25.71
2023-05-22T10:45:02.785Z,25.61
2023-05-22T10:47:29.365Z,25.46
2023-05-22T10:50:11.531Z,25.31
2023-05-22T10:52:38.690Z,25.20
2023-05-22T10:55:08.835Z,25.12
2023-05-22T10:57:37.466Z,25.14
2023-05-22T11:00:15.610Z,25.16
2023-05-22T11:02:43.444Z,25.15
2023-05-22T11:05:19.026Z,25.25
2023-05-22T11:07:45.632Z,25.39
2023-05-22T11:10:12.383Z,25.49
2023-05-22T11:12:39.025Z,25.63
2023-05-22T11:15:09.521Z,25.79
2023-05-22T11:17:42.576Z,26.00
2023-05-22T11:20:29.529Z,26.25
2023-05-22T11:22:59.409Z,26.41
2023-05-22T11:25:27.046Z,26.37
2023-05-22T11:27:54.280Z,26.33
2023-05-22T11:30:20.999Z,26.18
2023-05-22T11:32:47.610Z,26.13
2023-05-22T11:35:18.116Z,26.06
2023-05-22T11:37:44.966Z,25.94
2023-05-22T11:40:13.706Z,25.88
2023-05-22T11:42:40.282Z,25.88
2023-05-22T11:45:07.275Z,25.92
2023-05-22T11:47:33.865Z,26.03
2023-05-22T11:50:00.457Z,26.35
2023-05-22T11:52:34.356Z,26.90
2023-05-22T11:55:00.987Z,27.46
2023-05-22T11:57:27.613Z,27.81
2023-05-22T11:59:54.283Z,28.02
2023-05-22T12:02:20.866Z,28.25
2023-05-22T12:04:47.468Z,28.19
2023-05-22T12:07:14.030Z,28.05
2023-05-22T12:09:41.851Z,27.83
2023-05-22T12:12:11.630Z,27.68
2023-05-22T12:14:38.283Z,27.82
2023-05-22T12:17:04.921Z,27.90
2023-05-22T12:19:31.688Z,27.87
2023-05-22T12:21:58.692Z,27.76
2023-05-22T12:24:25.280Z,27.77
2023-05-22T12:26:55.102Z,27.81
2023-05-22T12:29:24.851Z,27.89
2023-05-22T12:31:51.614Z,28.24
2023-05-22T12:34:18.295Z,28.44
2023-05-22T12:36:45.880Z,28.56
2023-05-22T12:39:16.515Z,28.66
2023-05-22T12:41:43.805Z,28.91
2023-05-22T12:44:10.396Z,29.01
2023-05-22T12:46:37.093Z,29.05
2023-05-22T12:49:03.806Z,29.14
2023-05-22T12:51:31.845Z,29.27
2023-05-22T12:53:58.880Z,29.29
2023-05-22T12:56:25.587Z,29.03
2023-05-22T12:58:52.171Z,28.58
2023-05-22T13:01:18.815Z,28.22
2023-05-22T13:03:46.603Z,28.11
2023-05-22T13:06:13.357Z,28.51
2023-05-22T13:08:40.049Z,29.00
2023-05-22T13:11:06.695Z,29.30
2023-05-22T13:13:33.349Z,29.30
2023-05-22T13:16:00.090Z,29.15
2023-05-22T13:18:26.747Z,28.77
2023-05-22T13:20:53.322Z,28.57
2023-05-22T13:23:20.006Z,28.24
2023-05-22T13:25:46.610Z,28.15
2023-05-22T13:28:13.202Z,28.28
2023-05-22T13:30:39.993Z,28.49
2023-05-22T13:33:06.931Z,28.55
2023-05-22T13:35:33.601Z,28.49
2023-05-22T13:38:00.334Z,28.43
2023-05-22T13:40:26.981Z,28.29
2023-05-22T13:42:53.547Z,28.10
2023-05-22T13:45:20.182Z,27.97
2023-05-22T13:47:46.777Z,27.91
2023-05-22T13:50:13.428Z,28.03
2023-05-22T13:52:40.181Z,28.26
2023-05-22T13:55:07.054Z,28.27
2023-05-22T13:57:33.649Z,28.21
2023-05-22T14:00:00.306Z,28.08
2023-05-22T14:02:26.961Z,28.03
2023-05-22T14:04:53.641Z,27.88
2023-05-22T14:07:20.282Z,27.63
2023-05-22T14:09:46.876Z,27.36
2023-05-22T14:12:13.566Z,27.28
2023-05-22T14:14:40.185Z,27.20
2023-05-22T14:17:07.424Z,27.30
2023-05-22T14:19:34.227Z,27.51
2023-05-22T14:22:00.986Z,27.50
2023-05-22T14:24:27.716Z,27.36
2023-05-22T14:26:54.472Z,27.18
2023-05-22T14:29:21.231Z,26.93
2023-05-22T14:31:51.394Z,26.72
2023-05-22T14:34:18.704Z,26.51
2023-05-22T14:36:45.284Z,26.32
2023-05-22T14:39:12.172Z,26.12
2023-05-22T14:41:38.743Z,25.94
2023-05-22T14:44:05.471Z,25.80
2023-05-22T14:46:32.190Z,25.70
2023-05-22T14:48:58.813Z,25.66
2023-05-22T14:51:25.448Z,25.55
2023-05-22T14:53:52.145Z,25.51
2023-05-22T14:56:18.745Z,25.39
2023-05-22T14:58:45.380Z,25.31
2023-05-22T15:01:12.000Z,25.17
2023-05-22T15:03:38.616Z,25.13
2023-05-22T15:06:05.280Z,25.13
2023-05-22T15:08:32.246Z,25.05
2023-05-22T15:10:58.903Z,24.97
2023-05-22T15:13:25.476Z,24.98
2023-05-22T15:15:52.062Z,25.03
2023-05-22T15:18:18.678Z,24.86
2023-05-22T15:20:45.266Z,24.42
2023-05-22T15:23:11.864Z,23.97
2023-05-22T15:25:38.651Z,23.74
2023-05-22T15:28:05.354Z,23.32
2023-05-22T15:30:33.148Z,22.71
2023-05-22T15:32:59.825Z,22.03
2023-05-22T15:35:26.612Z,21.56
2023-05-22T15:37:53.672Z,21.00
2023-05-22T15:40:20.237Z,20.57
2023-05-22T15:42:46.821Z,20.23
2023-05-22T15:45:13.475Z,19.90
2023-05-22T15:47:41.271Z,19.67
2023-05-22T15:50:08.149Z,19.43
2023-05-22T15:52:34.821Z,19.22
2023-05-22T15:55:01.438Z,19.08
2023-05-22T15:57:28.060Z,18.97
2023-05-22T15:59:54.804Z,18.89
2023-05-22T16:02:21.352Z,18.83
2023-05-22T16:04:48.923Z,18.84
2023-05-22T16:07:15.579Z,18.83
2023-05-22T16:09:42.375Z,18.77
2023-05-22T16:12:08.970Z,18.74
2023-05-22T16:14:35.562Z,18.78
2023-05-22T16:17:02.285Z,18.84
2023-05-22T16:19:29.054Z,18.85
2023-05-22T16:21:56.007Z,18.79
2023-05-22T16:24:22.644Z,18.78
2023-05-22T16:26:49.299Z,18.76
2023-05-22T16:29:18.233Z,18.85
2023-05-22T16:31:44.894Z,18.87
2023-05-22T16:34:11.646Z,18.79
2023-05-22T16:36:38.280Z,18.74
2023-05-22T16:39:04.840Z,18.75
2023-05-22T16:41:31.403Z,18.72
2023-05-22T16:43:58.025Z,18.66
2023-05-22T16:46:24.718Z,18.61
2023-05-22T16:48:51.337Z,18.58
2023-05-22T16:51:17.910Z,18.58
2023-05-22T16:53:44.551Z,18.60
2023-05-22T16:56:11.186Z,18.61
2023-05-22T16:58:38.603Z,18.56
2023-05-22T17:01:05.772Z,18.49
2023-05-22T17:03:33.115Z,18.37
2023-05-22T17:05:59.929Z,18.37
2023-05-22T17:08:26.501Z,18.41
2023-05-22T17:10:53.101Z,18.44
2023-05-22T17:13:21.268Z,18.47
2023-05-22T17:15:48.531Z,18.57
2023-05-22T17:18:16.022Z,18.69
2023-05-22T17:20:42.623Z,18.67
2023-05-22T17:23:09.222Z,18.60
2023-05-22T17:25:35.762Z,18.55
2023-05-22T17:28:02.394Z,18.57
2023-05-22T17:30:29.214Z,18.51
2023-05-22T17:32:55.797Z,18.54
2023-05-22T17:35:22.508Z,18.55
2023-05-22T17:37:49.125Z,18.46
2023-05-22T17:40:15.784Z,18.53
2023-05-22T17:42:42.342Z,18.48
2023-05-22T17:45:09.591Z,18.46
2023-05-22T17:47:36.216Z,18.47
2023-05-22T17:50:02.766Z,18.44
2023-05-22T17:52:29.350Z,18.40
2023-05-22T17:54:55.966Z,18.33
2023-05-22T17:57:22.590Z,18.30
2023-05-22T17:59:49.145Z,18.27
2023-05-22T18:02:16.272Z,18.23
2023-05-22T18:04:42.843Z,18.20
2023-05-22T18:07:09.372Z,18.19
2023-05-22T18:09:35.985Z,18.15
2023-05-22T18:12:02.609Z,18.11
2023-05-22T18:14:29.258Z,18.04
2023-05-22T18:16:55.817Z,18.02
2023-05-22T18:19:22.437Z,18.00
2023-05-22T18:21:49.000Z,17.96
2023-05-22T18:24:15.597Z,17.98
2023-05-22T18:26:42.193Z,18.04
2023-05-22T18:29:08.748Z,18.01
2023-05-22T18:31:35.451Z,17.98
2023-05-22T18:34:02.061Z,17.94
2023-05-22T18:36:28.618Z,17.86
2023-05-22T18:38:55.231Z,17.91
2023-05-22T18:41:21.779Z,17.86
2023-05-22T18:43:48.338Z,17.84
2023-05-22T18:46:14.946Z,17.87
2023-05-22T18:48:41.602Z,17.79
2023-05-22T18:51:08.207Z,17.81
2023-05-22T18:53:34.809Z,17.76
2023-05-22T18:56:01.459Z,17.73
2023-05-22T18:58:28.034Z,17.70
2023-05-22T19:00:54.590Z,17.73
2023-05-22T19:03:21.476Z,17.68
2023-05-22T19:05:48.082Z,17.64
2023-05-22T19:08:14.735Z,17.67
2023-05-22T19:10:41.526Z,17.76
2023-05-22T19:13:08.464Z,17.81
2023-05-22T19:15:35.144Z,17.76
2023-05-22T19:18:01.893Z,17.66
2023-05-22T19:20:28.555Z,17.60
2023-05-22T19:22:55.324Z,17.55
2023-05-22T19:25:21.894Z,17.61
2023-05-22T19:27:48.480Z,17.60
2023-05-22T19:30:15.302Z,17.54
2023-05-22T19:32:43.000Z,17.47
2023-05-22T19:35:09.847Z,17.58
2023-05-22T19:37:36.417Z,17.52
2023-05-22T19:40:03.083Z,17.49
2023-05-22T19:42:29.657Z,17.43
2023-05-22T19:44:56.298Z,17.42
2023-05-22T19:47:22.871Z,17.38
2023-05-22T19:49:49.467Z,17.35
2023-05-22T19:52:16.102Z,17.33
2023-05-22T19:54:42.694Z,17.33
2023-05-22T19:57:09.296Z,17.32
2023-05-22T19:59:36.847Z,17.26
2023-05-22T22:00:44.738Z,16.70
2023-05-22T22:03:11.371Z,16.69
2023-05-22T22:05:37.979Z,16.71
2023-05-22T22:08:05.220Z,16.72
2023-05-22T22:10:31.839Z,16.75
2023-05-22T22:12:58.441Z,16.78
2023-05-22T22:15:25.034Z,16.77
2023-05-22T22:17:51.658Z,16.85
2023-05-22T22:20:24.704Z,16.86
2023-05-22T22:22:57.036Z,16.88
2023-05-22T22:25:23.644Z,16.82
2023-05-22T22:27:50.273Z,16.73
2023-05-22T22:30:16.872Z,16.76
2023-05-22T22:32:43.491Z,16.68
2023-05-22T22:35:10.241Z,16.66
2023-05-22T22:37:36.804Z,16.62
2023-05-22T22:40:04.301Z,16.64
2023-05-22T22:42:30.954Z,16.58
2023-05-22T22:44:57.594Z,16.62
2023-05-22T22:47:24.253Z,16.63
2023-05-22T22:49:50.822Z,16.60
2023-05-22T22:52:17.406Z,16.61
2023-05-22T22:54:44.834Z,16.57
2023-05-22T22:57:11.688Z,16.58
2023-05-22T22:59:38.303Z,16.60
2023-05-22T23:02:05.050Z,16.60
2023-05-22T23:04:31.726Z,16.61
2023-05-22T23:06:58.391Z,16.61
2023-05-22T23:09:24.981Z,16.59
2023-05-22T23:11:51.541Z,16.62
2023-05-22T23:14:18.164Z,16.58
2023-05-22T23:16:44.735Z,16.52
2023-05-22T23:19:11.442Z,16.41
2023-05-22T23:21:38.030Z,16.36
2023-05-22T23:24:04.813Z,16.35
2023-05-22T23:26:31.746Z,16.36
2023-05-22T23:28:58.993Z,16.36
2023-05-22T23:31:25.755Z,16.36
2023-05-22T23:33:52.788Z,16.37
2023-05-22T23:36:19.397Z,16.43
2023-05-22T23:38:45.961Z,16.50
2023-05-22T23:41:13.938Z,16.52
2023-05-22T23:43:40.505Z,16.44
2023-05-22T23:46:07.165Z,16.41
2023-05-22T23:48:33.732Z,16.36
2023-05-22T23:51:00.292Z,16.33
2023-05-22T23:53:26.891Z,16.32
2023-05-22T23:55:53.518Z,16.36
2023-05-22T23:58:20.103Z,16.41
